Stolt Lind — MAQR2 — position and weather

sailwx.info

Track history (hours):
 
Tides and Currents Weather Stations Pressure Air Temp Water Temp Dewpoint Dewpoint Depression Visibility Wind Speed Wind Dir Waves Ship Positions

Stolt Lind

Last reported at 2017-Oct-18 07:15 UTC. Time now 2017-Oct-18 12:47 UTC.
Position N 35°58' W 005°36'.

Length 185 m; draft 10.1 m.

Type: Ship (hazmat cat A). MMSI: 232006648.

Date/timePositionNaut miles runAvg speedWind from/ knotsBaromVisibWave heightAir tempDewpointWater temp
2017-Oct-18 07:15N 35°58' W 005°36'2 8.8
2017-Oct-18 07:00N 35°59' W 005°34'4 8.1
2017-Oct-18 06:29N 35°60' W 005°29'4 8.5
2017-Oct-18 06:00N 36°02' W 005°24'510.0
2017-Oct-18 05:30N 36°07' W 005°24'3 5.6
2017-Oct-18 04:54N 36°10' W 005°24'0 0.1
2017-Oct-18 04:30N 36°10' W 005°24'0 0.2
2017-Oct-18 04:00N 36°10' W 005°24'0 0.0
2017-Oct-17 03:15N 36°11' W 005°24'0 1.1
2017-Oct-17 03:00N 36°10' W 005°24'3 5.2
2017-Oct-17 02:31N 36°08' W 005°24'2 3.7
2017-Oct-17 02:01N 36°06' W 005°24'3 6.4
2017-Oct-17 01:31N 36°03' W 005°23'5 9.9
2017-Oct-17 01:00N 35°58' W 005°26'7611.9
2017-Oct-16 18:39N 36°03' W 006°59'211.9
2017-Oct-16 18:30N 36°03' W 007°01'612.8
2017-Oct-16 17:59N 36°05' W 007°09'5812.9
2017-Oct-16 13:29N 36°18' W 008°19'10111.7
2017-Oct-16 04:50N 37°27' W 009°51'713.3
2017-Oct-16 04:20N 37°34' W 009°53'513.4
2017-Oct-16 03:57N 37°39' W 009°54'713.4
2017-Oct-16 03:24N 37°46' W 009°56'1613.7
2017-Oct-16 02:14N 38°02' W 010°00'314.4
2017-Oct-16 02:00N 38°05' W 010°01'814.5
2017-Oct-16 01:29N 38°12' W 010°03'714.1
2017-Oct-16 01:00N 38°19' W 010°06'713.8
2017-Oct-16 00:31N 38°25' W 010°08'1113.7
2017-Oct-15 23:42N 38°36' W 010°11'313.7
2017-Oct-15 23:30N 38°39' W 010°12'713.5
2017-Oct-15 23:00N 38°45' W 010°12'713.3
2017-Oct-15 22:30N 38°52' W 010°12'613.0
2017-Oct-15 22:01N 38°58' W 010°12'713.2
2017-Oct-15 21:30N 39°05' W 010°12'713.4
2017-Oct-15 21:00N 39°12' W 010°12'713.1
2017-Oct-15 20:31N 39°18' W 010°12'612.7
2017-Oct-15 20:00N 39°25' W 010°12'612.5
2017-Oct-15 19:30N 39°31' W 010°11'712.5
2017-Oct-15 18:59N 39°37' W 010°12'612.8
2017-Oct-15 18:30N 39°44' W 010°12'30212.7
2017-Oct-14 18:44N 44°42' W 009°09'714.3
2017-Oct-14 18:14N 44°48' W 009°04'313.5
2017-Oct-14 18:00N 44°51' W 009°02'18513.1
2017-Oct-14 03:53N 47°34' W 006°55'1314.1
2017-Oct-14 02:58N 47°45' W 006°46'1513.9
2017-Oct-14 01:53N 47°58' W 006°34'4013.3
2017-Oct-13 22:53N 48°33' W 006°05'512.6
2017-Oct-13 22:29N 48°38' W 006°01'812.4
2017-Oct-13 21:49N 48°45' W 005°55'812.3
2017-Oct-13 21:13N 48°51' W 005°50'312.3
2017-Oct-13 21:00N 48°54' W 005°48'712.3
2017-Oct-13 20:27N 48°57' W 005°39'612.5
2017-Oct-13 20:00N 49°00' W 005°32'612.3
2017-Oct-13 19:30N 49°03' W 005°23'712.7
2017-Oct-13 18:58N 49°06' W 005°15'1013.0
2017-Oct-13 18:12N 49°11' W 005°01'313.1
2017-Oct-13 17:57N 49°13' W 004°57'613.2
2017-Oct-13 17:30N 49°16' W 004°49'713.3
2017-Oct-13 16:59N 49°20' W 004°40'713.3
2017-Oct-13 16:30N 49°23' W 004°31'713.2
2017-Oct-13 15:59N 49°26' W 004°22'1613.1
2017-Oct-13 14:47N 49°34' W 004°01'512.7
2017-Oct-13 14:22N 49°37' W 003°54'511.9
2017-Oct-13 13:58N 49°39' W 003°48'510.7
2017-Oct-13 13:30N 49°42' W 003°41'710.7
2017-Oct-13 12:52N 49°45' W 003°32'412.1
2017-Oct-13 12:30N 49°47' W 003°27'612.0
2017-Oct-13 12:00N 49°50' W 003°19'612.0
2017-Oct-13 11:30N 49°53' W 003°11'612.2
2017-Oct-13 11:00N 49°56' W 003°02'612.3
2017-Oct-13 10:30N 49°59' W 002°54'812.9
2017-Oct-13 09:54N 50°01' W 002°42'2213.8
2017-Oct-13 08:18N 50°07' W 002°09'414.6
2017-Oct-13 08:00N 50°09' W 002°03'714.6
2017-Oct-13 07:30N 50°11' W 001°52'814.7
2017-Oct-13 06:56N 50°13' W 001°39'714.5
2017-Oct-13 06:26N 50°15' W 001°28'813.7
2017-Oct-13 05:50N 50°18' W 001°16'3112.4
2017-Oct-13 03:18N 50°26' W 000°29'411.3
2017-Oct-13 02:59N 50°27' W 000°23'511.2
2017-Oct-13 02:30N 50°28' W 000°15'611.2
2017-Oct-13 02:00N 50°30' W 000°07'511.2
2017-Oct-13 01:30N 50°31' E 000°01'611.3
2017-Oct-13 01:00N 50°33' E 000°10'611.7
2017-Oct-13 00:30N 50°35' E 000°19'612.1
2017-Oct-13 00:00N 50°36' E 000°28'612.6
2017-Oct-12 23:30N 50°39' E 000°37'713.2
2017-Oct-12 23:01N 50°43' E 000°46'713.6
2017-Oct-12 22:30N 50°47' E 000°54'713.8
2017-Oct-12 21:58N 50°51' E 001°04'713.7
2017-Oct-12 21:29N 50°56' E 001°12'713.4
2017-Oct-12 21:00N 50°60' E 001°19'613.0
2017-Oct-12 20:31N 51°04' E 001°27'612.4
2017-Oct-12 20:01N 51°08' E 001°34'611.7
2017-Oct-12 19:31N 51°11' E 001°42'611.2
2017-Oct-12 19:01N 51°16' E 001°47'611.2
2017-Oct-12 18:30N 51°21' E 001°51'511.0
2017-Oct-12 18:00N 51°26' E 001°56'611.2
2017-Oct-12 17:30N 51°30' E 002°02'611.3
2017-Oct-12 17:00N 51°34' E 002°08'5912.2
2017-Oct-12 12:11N 52°03' E 003°30'412.7
2017-Oct-12 11:54N 52°03' E 003°36'512.6
2017-Oct-12 11:30N 52°03' E 003°44'611.4
2017-Oct-12 11:00N 52°02' E 003°54'3 6.4
2017-Oct-12 10:30N 52°01' E 003°58'510.7
2017-Oct-12 10:00N 51°59' E 004°06'510.7
2017-Oct-12 09:30N 51°56' E 004°13'4 8.4
2017-Oct-12 09:00N 51°54' E 004°19'1 1.8
2017-Oct-12 08:28N 51°53' E 004°21'0 0.0
2017-Oct-12 07:58N 51°53' E 004°21'0 0.0
2017-Oct-12 07:25N 51°53' E 004°21'0 0.0
2017-Oct-12 06:55N 51°53' E 004°21'0 0.0
2017-Oct-12 06:25N 51°53' E 004°21'0 0.0
2017-Oct-12 05:55N 51°53' E 004°21'0 0.0
2017-Oct-12 05:28N 51°53' E 004°21'0 0.0
2017-Oct-12 04:58N 51°53' E 004°21'0 0.0
2017-Oct-12 04:28N 51°53' E 004°21'0 0.0
2017-Oct-12 03:58N 51°53' E 004°21'0 0.0
2017-Oct-12 03:25N 51°53' E 004°21'0 0.0
2017-Oct-12 02:58N 51°53' E 004°21'0 0.0
2017-Oct-12 02:28N 51°53' E 004°21'0 0.0
2017-Oct-12 01:58N 51°53' E 004°21'0 0.0
2017-Oct-12 01:25N 51°53' E 004°21'0 0.0
2017-Oct-12 00:58N 51°53' E 004°21'0 0.0
2017-Oct-12 00:28N 51°53' E 004°21'0 0.0
2017-Oct-11 23:58N 51°53' E 004°21'0 0.0
2017-Oct-11 23:28N 51°53' E 004°21'0 0.0
2017-Oct-11 22:58N 51°53' E 004°21'0 0.0
2017-Oct-11 22:25N 51°53' E 004°21'0 0.0
2017-Oct-11 21:58N 51°53' E 004°21'0 0.0
2017-Oct-11 21:28N 51°53' E 004°21'0 0.0
2017-Oct-11 20:58N 51°53' E 004°21'0 0.0
2017-Oct-11 20:28N 51°53' E 004°21'0 0.0
2017-Oct-11 19:55N 51°53' E 004°21'0 0.0
2017-Oct-11 19:28N 51°53' E 004°21'0 0.0
2017-Oct-11 18:55N 51°53' E 004°21'0 0.0
2017-Oct-11 18:28N 51°53' E 004°21'0 0.0
2017-Oct-11 17:55N 51°53' E 004°21'0 0.0
2017-Oct-11 17:28N 51°53' E 004°21'0 0.0
2017-Oct-11 16:58N 51°53' E 004°21'3 0.2
2017-Oct-10 23:57N 51°53' E 004°16'0 0.0
2017-Oct-10 23:30N 51°53' E 004°16'0 0.0
2017-Oct-10 23:00N 51°53' E 004°16'0 0.0
2017-Oct-10 22:27N 51°53' E 004°16'0 0.0
2017-Oct-10 21:57N 51°53' E 004°16'0 0.0
2017-Oct-10 21:27N 51°53' E 004°16'0 0.0
2017-Oct-10 20:57N 51°53' E 004°16'0 0.0
2017-Oct-10 20:30N 51°53' E 004°16'0 0.0
2017-Oct-10 19:57N 51°53' E 004°16'0 0.0
2017-Oct-10 19:27N 51°53' E 004°16'0 0.0
2017-Oct-10 18:45N 51°53' E 004°16'0 0.0
2017-Oct-10 18:27N 51°53' E 004°16'0 0.0
2017-Oct-10 17:57N 51°53' E 004°16'0 0.0
2017-Oct-10 17:30N 51°53' E 004°16'0 0.0
2017-Oct-10 16:54N 51°53' E 004°16'0 0.0
2017-Oct-10 16:27N 51°53' E 004°16'0 0.0
2017-Oct-10 16:00N 51°53' E 004°16'0 0.0
2017-Oct-10 15:27N 51°53' E 004°16'0 0.0
2017-Oct-10 14:57N 51°53' E 004°16'0 0.0
2017-Oct-10 14:00N 51°53' E 004°16'0 0.0
2017-Oct-10 13:30N 51°53' E 004°16'0 0.0
2017-Oct-10 12:51N 51°53' E 004°16'0 0.0
2017-Oct-10 12:15N 51°53' E 004°16'0 0.0
2017-Oct-10 11:57N 51°53' E 004°16'0 0.0
2017-Oct-10 11:30N 51°53' E 004°16'0 0.0
2017-Oct-10 10:57N 51°53' E 004°16'0 0.0
2017-Oct-10 10:27N 51°53' E 004°16'0 0.0
2017-Oct-10 09:45N 51°53' E 004°16'0 0.0
2017-Oct-10 09:30N 51°53' E 004°16'0 0.0
2017-Oct-10 09:00N 51°53' E 004°16'0 0.0
2017-Oct-10 08:27N 51°53' E 004°16'0 0.0
2017-Oct-10 07:54N 51°53' E 004°16'0 0.0
2017-Oct-10 07:30N 51°53' E 004°16'0 0.0
2017-Oct-10 07:00N 51°53' E 004°16'0 0.0
2017-Oct-10 06:30N 51°53' E 004°16'0 0.0
2017-Oct-10 06:00N 51°53' E 004°16'0 0.0
2017-Oct-10 05:21N 51°53' E 004°16'0 0.0
2017-Oct-10 05:00N 51°53' E 004°16'0 0.0
2017-Oct-10 04:27N 51°53' E 004°16'0 0.0
2017-Oct-10 03:57N 51°53' E 004°16'0 0.0
2017-Oct-10 03:27N 51°53' E 004°16'0 0.0
2017-Oct-10 02:57N 51°53' E 004°16'0 0.0
2017-Oct-10 02:30N 51°53' E 004°16'0 0.0
2017-Oct-10 02:00N 51°53' E 004°16'0 0.0
2017-Oct-10 01:30N 51°53' E 004°16'0 0.0
2017-Oct-10 00:57N 51°53' E 004°16'0 0.0
2017-Oct-10 00:27N 51°53' E 004°16'0 0.0
2017-Oct-10 00:00N 51°53' E 004°16'0 0.0
2017-Oct-09 23:24N 51°53' E 004°16'0 0.0
2017-Oct-09 22:48N 51°53' E 004°16'0 0.0
2017-Oct-09 22:30N 51°53' E 004°16'0 0.0
2017-Oct-09 22:00N 51°53' E 004°16'0 0.0
2017-Oct-09 21:30N 51°53' E 004°16'0 0.0
2017-Oct-09 21:00N 51°53' E 004°16'0 0.0
2017-Oct-09 20:27N 51°53' E 004°16'0 0.0
2017-Oct-09 20:00N 51°53' E 004°16'0 0.0
2017-Oct-09 19:27N 51°53' E 004°16'0 0.0
2017-Oct-09 18:57N 51°53' E 004°16'0 0.0
2017-Oct-09 18:27N 51°53' E 004°16'0 0.3
2017-Oct-09 18:00N 51°53' E 004°17'2 3.2
2017-Oct-09 17:30N 51°54' E 004°19'2 4.0
2017-Oct-09 17:01N 51°53' E 004°22'0 0.4
2017-Oct-09 16:29N 51°53' E 004°22'0 0.0
2017-Oct-09 15:56N 51°53' E 004°22'0 0.0
2017-Oct-09 15:27N 51°53' E 004°22'0 0.0
2017-Oct-09 14:57N 51°53' E 004°22'0 0.0
2017-Oct-09 14:27N 51°53' E 004°22'0 0.0
2017-Oct-09 13:59N 51°53' E 004°22'0 0.0
2017-Oct-09 13:29N 51°53' E 004°22'0 0.0
2017-Oct-09 12:56N 51°53' E 004°22'0 0.0
2017-Oct-09 12:21N 51°53' E 004°22'0 0.0
2017-Oct-09 12:00N 51°53' E 004°22'0 0.0
2017-Oct-09 11:27N 51°53' E 004°22'0 0.0
2017-Oct-09 10:54N 51°53' E 004°22'0 0.0
2017-Oct-09 10:29N 51°53' E 004°22'0 0.0
2017-Oct-09 10:00N 51°53' E 004°22'0 0.0
2017-Oct-09 09:29N 51°53' E 004°22'0 0.0
2017-Oct-09 08:59N 51°53' E 004°22'0 0.0
2017-Oct-09 08:30N 51°53' E 004°22'0 0.0
2017-Oct-09 08:00N 51°53' E 004°22'0 0.0
2017-Oct-09 07:29N 51°53' E 004°22'0 0.0
2017-Oct-09 06:53N 51°53' E 004°22'0 0.0
2017-Oct-09 06:30N 51°53' E 004°22'0 0.0
2017-Oct-09 05:59N 51°53' E 004°22'0 0.0
2017-Oct-09 05:29N 51°53' E 004°22'0 0.0
2017-Oct-09 04:59N 51°53' E 004°22'0 0.0
2017-Oct-09 04:30N 51°53' E 004°22'0 0.0
2017-Oct-09 04:00N 51°53' E 004°22'0 0.0
2017-Oct-09 03:29N 51°53' E 004°22'0 0.0
2017-Oct-09 03:00N 51°53' E 004°22'0 0.0
2017-Oct-09 02:29N 51°53' E 004°22'0 0.0
2017-Oct-09 01:59N 51°53' E 004°22'0 0.0
2017-Oct-09 01:29N 51°53' E 004°22'0 0.0
2017-Oct-09 00:56N 51°53' E 004°22'0 0.0
2017-Oct-09 00:30N 51°53' E 004°22'0 0.0
2017-Oct-09 00:00N 51°53' E 004°22'0 0.0
2017-Oct-08 23:29N 51°53' E 004°22'0 0.0
2017-Oct-08 22:59N 51°53' E 004°22'0 0.0
2017-Oct-08 22:29N 51°53' E 004°22'0 0.0
2017-Oct-08 21:59N 51°53' E 004°22'0 0.0
2017-Oct-08 21:29N 51°53' E 004°22'0 0.0
2017-Oct-08 20:59N 51°53' E 004°22'0 0.0
2017-Oct-08 20:29N 51°53' E 004°22'0 0.0
2017-Oct-08 19:59N 51°53' E 004°22'0 0.0
2017-Oct-08 19:29N 51°53' E 004°22'0 0.0
2017-Oct-08 18:56N 51°53' E 004°22'0 0.0
2017-Oct-08 18:29N 51°53' E 004°22'0 0.0
2017-Oct-08 17:56N 51°53' E 004°22'0 0.0
2017-Oct-08 17:29N 51°53' E 004°22'0 0.0
2017-Oct-08 16:56N 51°53' E 004°22'0 0.0
2017-Oct-08 16:29N 51°53' E 004°22'0 0.0
2017-Oct-08 15:53N 51°53' E 004°22'0 0.0
2017-Oct-08 15:23N 51°53' E 004°22'0 0.0
2017-Oct-08 14:56N 51°53' E 004°22'0 0.0
2017-Oct-08 14:29N 51°53' E 004°22'0 1.0
2017-Oct-08 14:00N 51°54' E 004°22'0 0.7
2017-Oct-08 13:30N 51°54' E 004°22'0 0.0
2017-Oct-08 13:00N 51°54' E 004°22'0 0.0
2017-Oct-08 12:30N 51°54' E 004°22'0 0.0
2017-Oct-08 12:00N 51°54' E 004°22'0 0.0
2017-Oct-08 11:30N 51°54' E 004°22'0 0.0
2017-Oct-08 10:57N 51°54' E 004°22'0 0.0
2017-Oct-08 10:30N 51°54' E 004°22'0 0.0
2017-Oct-08 10:00N 51°54' E 004°22'0 0.0
2017-Oct-08 09:30N 51°54' E 004°22'0 0.0
2017-Oct-08 09:00N 51°54' E 004°22'0 0.0
2017-Oct-08 08:30N 51°54' E 004°22'0 0.0
2017-Oct-08 08:00N 51°54' E 004°22'0 0.0
2017-Oct-08 07:30N 51°54' E 004°22'  
Track history (hours):
 
Tides and Currents Weather Stations Pressure Air Temp Water Temp Dewpoint Dewpoint Depression Visibility Wind Speed Wind Dir Waves Ship Positions

Stolt Lind

Last reported at 2017-Oct-18 07:15 UTC. Time now 2017-Oct-18 12:47 UTC.
Position N 35°58' W 005°36'.

Length 185 m; draft 10.1 m.

Type: Ship (hazmat cat A). MMSI: 232006648.

Date/timePositionNaut miles runAvg speedWind from/ knotsBaromVisibWave heightAir tempDewpointWater temp
2017-Oct-18 07:15N 35°58' W 005°36'2 8.8
2017-Oct-18 07:00N 35°59' W 005°34'4 8.1
2017-Oct-18 06:29N 35°60' W 005°29'4 8.5
2017-Oct-18 06:00N 36°02' W 005°24'510.0
2017-Oct-18 05:30N 36°07' W 005°24'3 5.6
2017-Oct-18 04:54N 36°10' W 005°24'0 0.1
2017-Oct-18 04:30N 36°10' W 005°24'0 0.2
2017-Oct-18 04:00N 36°10' W 005°24'0 0.0
2017-Oct-17 03:15N 36°11' W 005°24'0 1.1
2017-Oct-17 03:00N 36°10' W 005°24'3 5.2
2017-Oct-17 02:31N 36°08' W 005°24'2 3.7
2017-Oct-17 02:01N 36°06' W 005°24'3 6.4
2017-Oct-17 01:31N 36°03' W 005°23'5 9.9
2017-Oct-17 01:00N 35°58' W 005°26'7611.9
2017-Oct-16 18:39N 36°03' W 006°59'211.9
2017-Oct-16 18:30N 36°03' W 007°01'612.8
2017-Oct-16 17:59N 36°05' W 007°09'5812.9
2017-Oct-16 13:29N 36°18' W 008°19'10111.7
2017-Oct-16 04:50N 37°27' W 009°51'713.3
2017-Oct-16 04:20N 37°34' W 009°53'513.4
2017-Oct-16 03:57N 37°39' W 009°54'713.4
2017-Oct-16 03:24N 37°46' W 009°56'1613.7
2017-Oct-16 02:14N 38°02' W 010°00'314.4
2017-Oct-16 02:00N 38°05' W 010°01'814.5
2017-Oct-16 01:29N 38°12' W 010°03'714.1
2017-Oct-16 01:00N 38°19' W 010°06'713.8
2017-Oct-16 00:31N 38°25' W 010°08'1113.7
2017-Oct-15 23:42N 38°36' W 010°11'313.7
2017-Oct-15 23:30N 38°39' W 010°12'713.5
2017-Oct-15 23:00N 38°45' W 010°12'713.3
2017-Oct-15 22:30N 38°52' W 010°12'613.0
2017-Oct-15 22:01N 38°58' W 010°12'713.2
2017-Oct-15 21:30N 39°05' W 010°12'713.4
2017-Oct-15 21:00N 39°12' W 010°12'713.1
2017-Oct-15 20:31N 39°18' W 010°12'612.7
2017-Oct-15 20:00N 39°25' W 010°12'612.5
2017-Oct-15 19:30N 39°31' W 010°11'712.5
2017-Oct-15 18:59N 39°37' W 010°12'612.8
2017-Oct-15 18:30N 39°44' W 010°12'30212.7
2017-Oct-14 18:44N 44°42' W 009°09'714.3
2017-Oct-14 18:14N 44°48' W 009°04'313.5
2017-Oct-14 18:00N 44°51' W 009°02'18513.1
2017-Oct-14 03:53N 47°34' W 006°55'1314.1
2017-Oct-14 02:58N 47°45' W 006°46'1513.9
2017-Oct-14 01:53N 47°58' W 006°34'4013.3
2017-Oct-13 22:53N 48°33' W 006°05'512.6
2017-Oct-13 22:29N 48°38' W 006°01'812.4
2017-Oct-13 21:49N 48°45' W 005°55'812.3
2017-Oct-13 21:13N 48°51' W 005°50'312.3
2017-Oct-13 21:00N 48°54' W 005°48'712.3
2017-Oct-13 20:27N 48°57' W 005°39'612.5
2017-Oct-13 20:00N 49°00' W 005°32'612.3
2017-Oct-13 19:30N 49°03' W 005°23'712.7
2017-Oct-13 18:58N 49°06' W 005°15'1013.0
2017-Oct-13 18:12N 49°11' W 005°01'313.1
2017-Oct-13 17:57N 49°13' W 004°57'613.2
2017-Oct-13 17:30N 49°16' W 004°49'713.3
2017-Oct-13 16:59N 49°20' W 004°40'713.3
2017-Oct-13 16:30N 49°23' W 004°31'713.2
2017-Oct-13 15:59N 49°26' W 004°22'1613.1
2017-Oct-13 14:47N 49°34' W 004°01'512.7
2017-Oct-13 14:22N 49°37' W 003°54'511.9
2017-Oct-13 13:58N 49°39' W 003°48'510.7
2017-Oct-13 13:30N 49°42' W 003°41'710.7
2017-Oct-13 12:52N 49°45' W 003°32'412.1
2017-Oct-13 12:30N 49°47' W 003°27'612.0
2017-Oct-13 12:00N 49°50' W 003°19'612.0
2017-Oct-13 11:30N 49°53' W 003°11'612.2
2017-Oct-13 11:00N 49°56' W 003°02'612.3
2017-Oct-13 10:30N 49°59' W 002°54'812.9
2017-Oct-13 09:54N 50°01' W 002°42'2213.8
2017-Oct-13 08:18N 50°07' W 002°09'414.6
2017-Oct-13 08:00N 50°09' W 002°03'714.6
2017-Oct-13 07:30N 50°11' W 001°52'814.7
2017-Oct-13 06:56N 50°13' W 001°39'714.5
2017-Oct-13 06:26N 50°15' W 001°28'813.7
2017-Oct-13 05:50N 50°18' W 001°16'3112.4
2017-Oct-13 03:18N 50°26' W 000°29'411.3
2017-Oct-13 02:59N 50°27' W 000°23'511.2
2017-Oct-13 02:30N 50°28' W 000°15'611.2
2017-Oct-13 02:00N 50°30' W 000°07'511.2
2017-Oct-13 01:30N 50°31' E 000°01'611.3
2017-Oct-13 01:00N 50°33' E 000°10'611.7
2017-Oct-13 00:30N 50°35' E 000°19'612.1
2017-Oct-13 00:00N 50°36' E 000°28'612.6
2017-Oct-12 23:30N 50°39' E 000°37'713.2
2017-Oct-12 23:01N 50°43' E 000°46'713.6
2017-Oct-12 22:30N 50°47' E 000°54'713.8
2017-Oct-12 21:58N 50°51' E 001°04'713.7
2017-Oct-12 21:29N 50°56' E 001°12'713.4
2017-Oct-12 21:00N 50°60' E 001°19'613.0
2017-Oct-12 20:31N 51°04' E 001°27'612.4
2017-Oct-12 20:01N 51°08' E 001°34'611.7
2017-Oct-12 19:31N 51°11' E 001°42'611.2
2017-Oct-12 19:01N 51°16' E 001°47'611.2
2017-Oct-12 18:30N 51°21' E 001°51'511.0
2017-Oct-12 18:00N 51°26' E 001°56'611.2
2017-Oct-12 17:30N 51°30' E 002°02'611.3
2017-Oct-12 17:00N 51°34' E 002°08'5912.2
2017-Oct-12 12:11N 52°03' E 003°30'412.7
2017-Oct-12 11:54N 52°03' E 003°36'512.6
2017-Oct-12 11:30N 52°03' E 003°44'611.4
2017-Oct-12 11:00N 52°02' E 003°54'3 6.4
2017-Oct-12 10:30N 52°01' E 003°58'510.7
2017-Oct-12 10:00N 51°59' E 004°06'510.7
2017-Oct-12 09:30N 51°56' E 004°13'4 8.4
2017-Oct-12 09:00N 51°54' E 004°19'1 1.8
2017-Oct-12 08:28N 51°53' E 004°21'0 0.0
2017-Oct-12 07:58N 51°53' E 004°21'0 0.0
2017-Oct-12 07:25N 51°53' E 004°21'0 0.0
2017-Oct-12 06:55N 51°53' E 004°21'0 0.0
2017-Oct-12 06:25N 51°53' E 004°21'0 0.0
2017-Oct-12 05:55N 51°53' E 004°21'0 0.0
2017-Oct-12 05:28N 51°53' E 004°21'0 0.0
2017-Oct-12 04:58N 51°53' E 004°21'0 0.0
2017-Oct-12 04:28N 51°53' E 004°21'0 0.0
2017-Oct-12 03:58N 51°53' E 004°21'0 0.0
2017-Oct-12 03:25N 51°53' E 004°21'0 0.0
2017-Oct-12 02:58N 51°53' E 004°21'0 0.0
2017-Oct-12 02:28N 51°53' E 004°21'0 0.0
2017-Oct-12 01:58N 51°53' E 004°21'0 0.0
2017-Oct-12 01:25N 51°53' E 004°21'0 0.0
2017-Oct-12 00:58N 51°53' E 004°21'0 0.0
2017-Oct-12 00:28N 51°53' E 004°21'0 0.0
2017-Oct-11 23:58N 51°53' E 004°21'0 0.0
2017-Oct-11 23:28N 51°53' E 004°21'0 0.0
2017-Oct-11 22:58N 51°53' E 004°21'0 0.0
2017-Oct-11 22:25N 51°53' E 004°21'0 0.0
2017-Oct-11 21:58N 51°53' E 004°21'0 0.0
2017-Oct-11 21:28N 51°53' E 004°21'0 0.0
2017-Oct-11 20:58N 51°53' E 004°21'0 0.0
2017-Oct-11 20:28N 51°53' E 004°21'0 0.0
2017-Oct-11 19:55N 51°53' E 004°21'0 0.0
2017-Oct-11 19:28N 51°53' E 004°21'0 0.0
2017-Oct-11 18:55N 51°53' E 004°21'0 0.0
2017-Oct-11 18:28N 51°53' E 004°21'0 0.0
2017-Oct-11 17:55N 51°53' E 004°21'0 0.0
2017-Oct-11 17:28N 51°53' E 004°21'0 0.0
2017-Oct-11 16:58N 51°53' E 004°21'3 0.2
2017-Oct-10 23:57N 51°53' E 004°16'0 0.0
2017-Oct-10 23:30N 51°53' E 004°16'0 0.0
2017-Oct-10 23:00N 51°53' E 004°16'0 0.0
2017-Oct-10 22:27N 51°53' E 004°16'0 0.0
2017-Oct-10 21:57N 51°53' E 004°16'0 0.0
2017-Oct-10 21:27N 51°53' E 004°16'0 0.0
2017-Oct-10 20:57N 51°53' E 004°16'0 0.0
2017-Oct-10 20:30N 51°53' E 004°16'0 0.0
2017-Oct-10 19:57N 51°53' E 004°16'0 0.0
2017-Oct-10 19:27N 51°53' E 004°16'0 0.0
2017-Oct-10 18:45N 51°53' E 004°16'0 0.0
2017-Oct-10 18:27N 51°53' E 004°16'0 0.0
2017-Oct-10 17:57N 51°53' E 004°16'0 0.0
2017-Oct-10 17:30N 51°53' E 004°16'0 0.0
2017-Oct-10 16:54N 51°53' E 004°16'0 0.0
2017-Oct-10 16:27N 51°53' E 004°16'0 0.0
2017-Oct-10 16:00N 51°53' E 004°16'0 0.0
2017-Oct-10 15:27N 51°53' E 004°16'0 0.0
2017-Oct-10 14:57N 51°53' E 004°16'0 0.0
2017-Oct-10 14:00N 51°53' E 004°16'0 0.0
2017-Oct-10 13:30N 51°53' E 004°16'0 0.0
2017-Oct-10 12:51N 51°53' E 004°16'0 0.0
2017-Oct-10 12:15N 51°53' E 004°16'0 0.0
2017-Oct-10 11:57N 51°53' E 004°16'0 0.0
2017-Oct-10 11:30N 51°53' E 004°16'0 0.0
2017-Oct-10 10:57N 51°53' E 004°16'0 0.0
2017-Oct-10 10:27N 51°53' E 004°16'0 0.0
2017-Oct-10 09:45N 51°53' E 004°16'0 0.0
2017-Oct-10 09:30N 51°53' E 004°16'0 0.0
2017-Oct-10 09:00N 51°53' E 004°16'0 0.0
2017-Oct-10 08:27N 51°53' E 004°16'0 0.0
2017-Oct-10 07:54N 51°53' E 004°16'0 0.0
2017-Oct-10 07:30N 51°53' E 004°16'0 0.0
2017-Oct-10 07:00N 51°53' E 004°16'0 0.0
2017-Oct-10 06:30N 51°53' E 004°16'0 0.0
2017-Oct-10 06:00N 51°53' E 004°16'0 0.0
2017-Oct-10 05:21N 51°53' E 004°16'0 0.0
2017-Oct-10 05:00N 51°53' E 004°16'0 0.0
2017-Oct-10 04:27N 51°53' E 004°16'0 0.0
2017-Oct-10 03:57N 51°53' E 004°16'0 0.0
2017-Oct-10 03:27N 51°53' E 004°16'0 0.0
2017-Oct-10 02:57N 51°53' E 004°16'0 0.0
2017-Oct-10 02:30N 51°53' E 004°16'0 0.0
2017-Oct-10 02:00N 51°53' E 004°16'0 0.0
2017-Oct-10 01:30N 51°53' E 004°16'0 0.0
2017-Oct-10 00:57N 51°53' E 004°16'0 0.0
2017-Oct-10 00:27N 51°53' E 004°16'0 0.0
2017-Oct-10 00:00N 51°53' E 004°16'0 0.0
2017-Oct-09 23:24N 51°53' E 004°16'0 0.0
2017-Oct-09 22:48N 51°53' E 004°16'0 0.0
2017-Oct-09 22:30N 51°53' E 004°16'0 0.0
2017-Oct-09 22:00N 51°53' E 004°16'0 0.0
2017-Oct-09 21:30N 51°53' E 004°16'0 0.0
2017-Oct-09 21:00N 51°53' E 004°16'0 0.0
2017-Oct-09 20:27N 51°53' E 004°16'0 0.0
2017-Oct-09 20:00N 51°53' E 004°16'0 0.0
2017-Oct-09 19:27N 51°53' E 004°16'0 0.0
2017-Oct-09 18:57N 51°53' E 004°16'0 0.0
2017-Oct-09 18:27N 51°53' E 004°16'0 0.3
2017-Oct-09 18:00N 51°53' E 004°17'2 3.2
2017-Oct-09 17:30N 51°54' E 004°19'2 4.0
2017-Oct-09 17:01N 51°53' E 004°22'0 0.4
2017-Oct-09 16:29N 51°53' E 004°22'0 0.0
2017-Oct-09 15:56N 51°53' E 004°22'0 0.0
2017-Oct-09 15:27N 51°53' E 004°22'0 0.0
2017-Oct-09 14:57N 51°53' E 004°22'0 0.0
2017-Oct-09 14:27N 51°53' E 004°22'0 0.0
2017-Oct-09 13:59N 51°53' E 004°22'0 0.0
2017-Oct-09 13:29N 51°53' E 004°22'0 0.0
2017-Oct-09 12:56N 51°53' E 004°22'0 0.0
2017-Oct-09 12:21N 51°53' E 004°22'0 0.0
2017-Oct-09 12:00N 51°53' E 004°22'0 0.0
2017-Oct-09 11:27N 51°53' E 004°22'0 0.0
2017-Oct-09 10:54N 51°53' E 004°22'0 0.0
2017-Oct-09 10:29N 51°53' E 004°22'0 0.0
2017-Oct-09 10:00N 51°53' E 004°22'0 0.0
2017-Oct-09 09:29N 51°53' E 004°22'0 0.0
2017-Oct-09 08:59N 51°53' E 004°22'0 0.0
2017-Oct-09 08:30N 51°53' E 004°22'0 0.0
2017-Oct-09 08:00N 51°53' E 004°22'0 0.0
2017-Oct-09 07:29N 51°53' E 004°22'0 0.0
2017-Oct-09 06:53N 51°53' E 004°22'0 0.0
2017-Oct-09 06:30N 51°53' E 004°22'0 0.0
2017-Oct-09 05:59N 51°53' E 004°22'0 0.0
2017-Oct-09 05:29N 51°53' E 004°22'0 0.0
2017-Oct-09 04:59N 51°53' E 004°22'0 0.0
2017-Oct-09 04:30N 51°53' E 004°22'0 0.0
2017-Oct-09 04:00N 51°53' E 004°22'0 0.0
2017-Oct-09 03:29N 51°53' E 004°22'0 0.0
2017-Oct-09 03:00N 51°53' E 004°22'0 0.0
2017-Oct-09 02:29N 51°53' E 004°22'0 0.0
2017-Oct-09 01:59N 51°53' E 004°22'0 0.0
2017-Oct-09 01:29N 51°53' E 004°22'0 0.0
2017-Oct-09 00:56N 51°53' E 004°22'0 0.0
2017-Oct-09 00:30N 51°53' E 004°22'0 0.0
2017-Oct-09 00:00N 51°53' E 004°22'0 0.0
2017-Oct-08 23:29N 51°53' E 004°22'0 0.0
2017-Oct-08 22:59N 51°53' E 004°22'0 0.0
2017-Oct-08 22:29N 51°53' E 004°22'0 0.0
2017-Oct-08 21:59N 51°53' E 004°22'0 0.0
2017-Oct-08 21:29N 51°53' E 004°22'0 0.0
2017-Oct-08 20:59N 51°53' E 004°22'0 0.0
2017-Oct-08 20:29N 51°53' E 004°22'0 0.0
2017-Oct-08 19:59N 51°53' E 004°22'0 0.0
2017-Oct-08 19:29N 51°53' E 004°22'0 0.0
2017-Oct-08 18:56N 51°53' E 004°22'0 0.0
2017-Oct-08 18:29N 51°53' E 004°22'0 0.0
2017-Oct-08 17:56N 51°53' E 004°22'0 0.0
2017-Oct-08 17:29N 51°53' E 004°22'0 0.0
2017-Oct-08 16:56N 51°53' E 004°22'0 0.0
2017-Oct-08 16:29N 51°53' E 004°22'0 0.0
2017-Oct-08 15:53N 51°53' E 004°22'0 0.0
2017-Oct-08 15:23N 51°53' E 004°22'0 0.0
2017-Oct-08 14:56N 51°53' E 004°22'0 0.0
2017-Oct-08 14:29N 51°53' E 004°22'0 1.0
2017-Oct-08 14:00N 51°54' E 004°22'0 0.7
2017-Oct-08 13:30N 51°54' E 004°22'0 0.0
2017-Oct-08 13:00N 51°54' E 004°22'0 0.0
2017-Oct-08 12:30N 51°54' E 004°22'0 0.0
2017-Oct-08 12:00N 51°54' E 004°22'0 0.0
2017-Oct-08 11:30N 51°54' E 004°22'0 0.0
2017-Oct-08 10:57N 51°54' E 004°22'0 0.0
2017-Oct-08 10:30N 51°54' E 004°22'0 0.0
2017-Oct-08 10:00N 51°54' E 004°22'0 0.0
2017-Oct-08 09:30N 51°54' E 004°22'0 0.0
2017-Oct-08 09:00N 51°54' E 004°22'0 0.0
2017-Oct-08 08:30N 51°54' E 004°22'0 0.0
2017-Oct-08 08:00N 51°54' E 004°22'0 0.0
2017-Oct-08 07:30N 51°54' E 004°22'  

Dump ship's entire track history